sensor_id;sensor_type;location;lat;lon;timestamp;temperature;humidity
1391;DHT22;690;51.454;7.194;2023-05-10T00:00:56;11.80;1.00
1391;DHT22;690;51.454;7.194;2023-05-10T00:03:23;11.70;1.00
1391;DHT22;690;51.454;7.194;2023-05-10T00:05:50;11.80;1.00
1391;DHT22;690;51.454;7.194;2023-05-10T00:08:18;11.70;1.00
1391;DHT22;690;51.454;7.194;2023-05-10T00:10:45;11.80;1.00
1391;DHT22;690;51.454;7.194;2023-05-10T00:13:13;11.80;1.00
1391;DHT22;690;51.454;7.194;2023-05-10T00:15:40;11.70;1.00
1391;DHT22;690;51.454;7.194;2023-05-10T00:18:09;11.80;1.00
1391;DHT22;690;51.454;7.194;2023-05-10T00:20:36;11.70;1.00
1391;DHT22;690;51.454;7.194;2023-05-10T00:23:03;11.70;1.00
1391;DHT22;690;51.454;7.194;2023-05-10T00:25:31;11.70;1.00
1391;DHT22;690;51.454;7.194;2023-05-10T00:27:58;11.70;1.00
1391;DHT22;690;51.454;7.194;2023-05-10T00:30:27;11.70;1.00
1391;DHT22;690;51.454;7.194;2023-05-10T00:32:54;11.60;1.00
1391;DHT22;690;51.454;7.194;2023-05-10T00:35:21;11.70;1.00
1391;DHT22;690;51.454;7.194;2023-05-10T00:37:48;11.60;1.00
1391;DHT22;690;51.454;7.194;2023-05-10T00:40:15;11.60;1.00
1391;DHT22;690;51.454;7.194;2023-05-10T00:42:43;11.70;1.00
1391;DHT22;690;51.454;7.194;2023-05-10T00:45:10;11.70;1.00
1391;DHT22;690;51.454;7.194;2023-05-10T00:47:37;11.70;1.00
1391;DHT22;690;51.454;7.194;2023-05-10T00:50:05;11.70;1.00
1391;DHT22;690;51.454;7.194;2023-05-10T00:52:32;11.70;1.00
1391;DHT22;690;51.454;7.194;2023-05-10T00:55:00;11.70;1.00
1391;DHT22;690;51.454;7.194;2023-05-10T00:57:29;11.70;1.00
1391;DHT22;690;51.454;7.194;2023-05-10T00:59:57;11.80;1.00
1391;DHT22;690;51.454;7.194;2023-05-10T01:02:25;11.80;1.00
1391;DHT22;690;51.454;7.194;2023-05-10T01:04:52;11.80;1.00
1391;DHT22;690;51.454;7.194;2023-05-10T01:07:19;11.80;1.00
1391;DHT22;690;51.454;7.194;2023-05-10T01:09:46;11.90;1.00
1391;DHT22;690;51.454;7.194;2023-05-10T01:12:14;11.90;1.00
1391;DHT22;690;51.454;7.194;2023-05-10T01:14:41;11.90;1.00
1391;DHT22;690;51.454;7.194;2023-05-10T01:17:10;11.80;1.00
1391;DHT22;690;51.454;7.194;2023-05-10T01:19:37;11.70;1.00
1391;DHT22;690;51.454;7.194;2023-05-10T01:22:20;11.70;1.00
1391;DHT22;690;51.454;7.194;2023-05-10T01:25:19;11.70;1.00
1391;DHT22;690;51.454;7.194;2023-05-10T01:28:13;11.70;1.00
1391;DHT22;690;51.454;7.194;2023-05-10T01:31:00;11.60;1.00
1391;DHT22;690;51.454;7.194;2023-05-10T01:33:35;11.60;1.00
1391;DHT22;690;51.454;7.194;2023-05-10T01:36:06;11.60;1.00
1391;DHT22;690;51.454;7.194;2023-05-10T01:38:42;11.60;1.00
1391;DHT22;690;51.454;7.194;2023-05-10T01:41:16;11.50;1.00
1391;DHT22;690;51.454;7.194;2023-05-10T01:43:55;11.60;1.00
1391;DHT22;690;51.454;7.194;2023-05-10T01:46:28;11.50;1.00
1391;DHT22;690;51.454;7.194;2023-05-10T01:49:00;11.50;1.00
1391;DHT22;690;51.454;7.194;2023-05-10T01:51:33;11.50;1.00
1391;DHT22;690;51.454;7.194;2023-05-10T01:54:03;11.40;1.00
1391;DHT22;690;51.454;7.194;2023-05-10T01:56:33;11.40;1.00
1391;DHT22;690;51.454;7.194;2023-05-10T01:59:06;11.40;1.00
1391;DHT22;690;51.454;7.194;2023-05-10T02:01:36;11.40;1.00
1391;DHT22;690;51.454;7.194;2023-05-10T02:04:06;11.30;1.00
1391;DHT22;690;51.454;7.194;2023-05-10T02:06:34;11.30;1.00
1391;DHT22;690;51.454;7.194;2023-05-10T02:09:02;11.30;1.00
1391;DHT22;690;51.454;7.194;2023-05-10T02:11:30;11.20;1.00
1391;DHT22;690;51.454;7.194;2023-05-10T02:13:58;11.20;1.00
1391;DHT22;690;51.454;7.194;2023-05-10T02:16:35;11.20;1.00
1391;DHT22;690;51.454;7.194;2023-05-10T02:19:04;11.20;1.00
1391;DHT22;690;51.454;7.194;2023-05-10T02:21:32;11.20;1.00
1391;DHT22;690;51.454;7.194;2023-05-10T02:24:02;11.20;1.00
1391;DHT22;690;51.454;7.194;2023-05-10T02:26:31;11.20;1.00
1391;DHT22;690;51.454;7.194;2023-05-10T02:29:01;11.20;1.00
1391;DHT22;690;51.454;7.194;2023-05-10T02:31:30;11.20;1.00
1391;DHT22;690;51.454;7.194;2023-05-10T02:33:59;11.20;1.00
1391;DHT22;690;51.454;7.194;2023-05-10T02:36:28;11.20;1.00
1391;DHT22;690;51.454;7.194;2023-05-10T02:38:57;11.10;1.00
1391;DHT22;690;51.454;7.194;2023-05-10T02:41:25;11.10;1.00
1391;DHT22;690;51.454;7.194;2023-05-10T02:43:56;11.00;1.00
1391;DHT22;690;51.454;7.194;2023-05-10T02:46:25;11.00;1.00
1391;DHT22;690;51.454;7.194;2023-05-10T02:48:52;11.00;1.00
1391;DHT22;690;51.454;7.194;2023-05-10T02:51:24;11.00;1.00
1391;DHT22;690;51.454;7.194;2023-05-10T02:53:53;11.00;1.00
1391;DHT22;690;51.454;7.194;2023-05-10T02:56:25;11.00;1.00
1391;DHT22;690;51.454;7.194;2023-05-10T02:58:55;11.10;1.00
1391;DHT22;690;51.454;7.194;2023-05-10T03:01:22;11.20;1.00
1391;DHT22;690;51.454;7.194;2023-05-10T03:03:49;11.20;1.00
1391;DHT22;690;51.454;7.194;2023-05-10T03:06:16;11.20;1.00
1391;DHT22;690;51.454;7.194;2023-05-10T03:08:43;11.20;1.00
1391;DHT22;690;51.454;7.194;2023-05-10T03:11:25;11.20;1.00
1391;DHT22;690;51.454;7.194;2023-05-10T03:14:02;11.20;1.00
1391;DHT22;690;51.454;7.194;2023-05-10T03:16:40;11.20;1.00
1391;DHT22;690;51.454;7.194;2023-05-10T03:19:14;11.20;1.00
1391;DHT22;690;51.454;7.194;2023-05-10T03:21:49;11.30;1.00
1391;DHT22;690;51.454;7.194;2023-05-10T03:24:20;11.30;1.00
1391;DHT22;690;51.454;7.194;2023-05-10T03:26:49;11.30;1.00
1391;DHT22;690;51.454;7.194;2023-05-10T03:29:16;11.30;1.00
1391;DHT22;690;51.454;7.194;2023-05-10T03:31:43;11.30;1.00
1391;DHT22;690;51.454;7.194;2023-05-10T03:34:10;11.30;1.00
1391;DHT22;690;51.454;7.194;2023-05-10T03:36:37;11.40;1.00
1391;DHT22;690;51.454;7.194;2023-05-10T03:39:04;11.40;1.00
1391;DHT22;690;51.454;7.194;2023-05-10T03:41:31;11.30;1.00
1391;DHT22;690;51.454;7.194;2023-05-10T03:43:59;11.40;1.00
1391;DHT22;690;51.454;7.194;2023-05-10T03:46:26;11.40;1.00
1391;DHT22;690;51.454;7.194;2023-05-10T03:48:53;11.40;1.00
1391;DHT22;690;51.454;7.194;2023-05-10T03:51:20;11.40;1.00
1391;DHT22;690;51.454;7.194;2023-05-10T03:53:47;11.40;1.00
1391;DHT22;690;51.454;7.194;2023-05-10T03:56:14;11.40;1.00
1391;DHT22;690;51.454;7.194;2023-05-10T03:58:41;11.40;1.00
1391;DHT22;690;51.454;7.194;2023-05-10T04:01:09;11.40;1.00
1391;DHT22;690;51.454;7.194;2023-05-10T04:03:36;11.40;1.00
1391;DHT22;690;51.454;7.194;2023-05-10T04:06:04;11.40;1.00
1391;DHT22;690;51.454;7.194;2023-05-10T04:08:32;11.40;1.00
1391;DHT22;690;51.454;7.194;2023-05-10T04:11:09;11.50;1.00
1391;DHT22;690;51.454;7.194;2023-05-10T04:13:37;11.50;1.00
1391;DHT22;690;51.454;7.194;2023-05-10T04:16:04;11.50;1.00
1391;DHT22;690;51.454;7.194;2023-05-10T04:18:33;11.60;1.00
1391;DHT22;690;51.454;7.194;2023-05-10T04:21:00;11.50;1.00
1391;DHT22;690;51.454;7.194;2023-05-10T04:23:27;11.50;1.00
1391;DHT22;690;51.454;7.194;2023-05-10T04:25:59;11.50;1.00
1391;DHT22;690;51.454;7.194;2023-05-10T04:28:26;11.50;1.00
1391;DHT22;690;51.454;7.194;2023-05-10T04:30:53;11.50;1.00
1391;DHT22;690;51.454;7.194;2023-05-10T04:33:20;11.50;1.00
1391;DHT22;690;51.454;7.194;2023-05-10T04:35:48;11.60;1.00
1391;DHT22;690;51.454;7.194;2023-05-10T04:38:16;11.50;1.00
1391;DHT22;690;51.454;7.194;2023-05-10T04:40:43;11.50;1.00
1391;DHT22;690;51.454;7.194;2023-05-10T04:43:10;11.50;1.00
1391;DHT22;690;51.454;7.194;2023-05-10T04:45:37;11.50;1.00
1391;DHT22;690;51.454;7.194;2023-05-10T04:48:04;11.50;1.00
1391;DHT22;690;51.454;7.194;2023-05-10T04:50:31;11.50;1.00
1391;DHT22;690;51.454;7.194;2023-05-10T04:52:59;11.50;1.00
1391;DHT22;690;51.454;7.194;2023-05-10T04:55:26;11.50;1.00
1391;DHT22;690;51.454;7.194;2023-05-10T04:57:53;11.50;1.00
1391;DHT22;690;51.454;7.194;2023-05-10T05:00:22;11.50;1.00
1391;DHT22;690;51.454;7.194;2023-05-10T05:02:50;11.60;1.00
1391;DHT22;690;51.454;7.194;2023-05-10T05:05:17;11.50;1.00
1391;DHT22;690;51.454;7.194;2023-05-10T05:07:44;11.60;1.00
1391;DHT22;690;51.454;7.194;2023-05-10T05:10:12;11.60;1.00
1391;DHT22;690;51.454;7.194;2023-05-10T05:12:39;11.60;1.00
1391;DHT22;690;51.454;7.194;2023-05-10T05:15:16;11.60;1.00
1391;DHT22;690;51.454;7.194;2023-05-10T05:17:43;11.60;1.00
1391;DHT22;690;51.454;7.194;2023-05-10T05:20:10;11.50;1.00
1391;DHT22;690;51.454;7.194;2023-05-10T05:22:41;11.50;1.00
1391;DHT22;690;51.454;7.194;2023-05-10T05:25:08;11.60;1.00
1391;DHT22;690;51.454;7.194;2023-05-10T05:27:37;11.60;1.00
1391;DHT22;690;51.454;7.194;2023-05-10T05:30:04;11.60;1.00
1391;DHT22;690;51.454;7.194;2023-05-10T05:32:32;11.60;1.00
1391;DHT22;690;51.454;7.194;2023-05-10T05:34:58;11.70;1.00
1391;DHT22;690;51.454;7.194;2023-05-10T05:37:26;11.70;1.00
1391;DHT22;690;51.454;7.194;2023-05-10T05:39:53;11.70;1.00
1391;DHT22;690;51.454;7.194;2023-05-10T05:42:20;11.70;1.00
1391;DHT22;690;51.454;7.194;2023-05-10T05:44:48;11.80;1.00
1391;DHT22;690;51.454;7.194;2023-05-10T05:47:15;11.80;1.00
1391;DHT22;690;51.454;7.194;2023-05-10T05:49:43;11.80;1.00
1391;DHT22;690;51.454;7.194;2023-05-10T05:52:11;11.80;1.00
1391;DHT22;690;51.454;7.194;2023-05-10T05:54:38;11.90;1.00
1391;DHT22;690;51.454;7.194;2023-05-10T05:57:05;12.00;1.00
1391;DHT22;690;51.454;7.194;2023-05-10T05:59:33;12.00;1.00
1391;DHT22;690;51.454;7.194;2023-05-10T06:02:01;11.90;1.00
1391;DHT22;690;51.454;7.194;2023-05-10T06:04:28;12.00;1.00
1391;DHT22;690;51.454;7.194;2023-05-10T06:06:54;11.90;1.00
1391;DHT22;690;51.454;7.194;2023-05-10T06:09:21;11.90;1.00
1391;DHT22;690;51.454;7.194;2023-05-10T06:11:50;11.90;1.00
1391;DHT22;690;51.454;7.194;2023-05-10T06:14:16;11.90;1.00
1391;DHT22;690;51.454;7.194;2023-05-10T06:16:43;12.00;1.00
1391;DHT22;690;51.454;7.194;2023-05-10T06:19:12;11.90;1.00
1391;DHT22;690;51.454;7.194;2023-05-10T06:21:39;11.90;1.00
1391;DHT22;690;51.454;7.194;2023-05-10T06:24:06;11.90;1.00
1391;DHT22;690;51.454;7.194;2023-05-10T06:26:33;12.00;1.00
1391;DHT22;690;51.454;7.194;2023-05-10T06:29:00;12.00;1.00
1391;DHT22;690;51.454;7.194;2023-05-10T06:31:27;12.10;1.00
1391;DHT22;690;51.454;7.194;2023-05-10T06:33:54;12.10;1.00
1391;DHT22;690;51.454;7.194;2023-05-10T06:36:22;12.10;1.00
1391;DHT22;690;51.454;7.194;2023-05-10T06:38:51;12.20;1.00
1391;DHT22;690;51.454;7.194;2023-05-10T06:41:18;12.20;1.00
1391;DHT22;690;51.454;7.194;2023-05-10T06:43:45;12.30;1.00
1391;DHT22;690;51.454;7.194;2023-05-10T06:46:12;12.40;1.00
1391;DHT22;690;51.454;7.194;2023-05-10T06:48:39;12.50;1.00
1391;DHT22;690;51.454;7.194;2023-05-10T06:51:06;12.60;1.00
1391;DHT22;690;51.454;7.194;2023-05-10T06:53:34;12.70;1.00
1391;DHT22;690;51.454;7.194;2023-05-10T06:56:02;12.80;1.00
1391;DHT22;690;51.454;7.194;2023-05-10T06:58:29;12.80;1.00
1391;DHT22;690;51.454;7.194;2023-05-10T07:01:02;12.90;1.00
1391;DHT22;690;51.454;7.194;2023-05-10T07:03:28;13.00;1.00
1391;DHT22;690;51.454;7.194;2023-05-10T07:06:02;13.20;1.00
1391;DHT22;690;51.454;7.194;2023-05-10T07:08:30;13.50;99.90
1391;DHT22;690;51.454;7.194;2023-05-10T07:11:02;13.60;99.90
1391;DHT22;690;51.454;7.194;2023-05-10T07:13:29;13.70;99.90
1391;DHT22;690;51.454;7.194;2023-05-10T07:15:56;13.70;10.30
1391;DHT22;690;51.454;7.194;2023-05-10T07:18:24;13.80;1.00
1391;DHT22;690;51.454;7.194;2023-05-10T07:20:51;13.70;1.00
1391;DHT22;690;51.454;7.194;2023-05-10T07:23:18;13.70;1.00
1391;DHT22;690;51.454;7.194;2023-05-10T07:25:45;13.80;1.00
1391;DHT22;690;51.454;7.194;2023-05-10T07:28:14;13.80;1.00
1391;DHT22;690;51.454;7.194;2023-05-10T07:30:42;13.90;1.00
1391;DHT22;690;51.454;7.194;2023-05-10T07:33:10;14.10;1.00
1391;DHT22;690;51.454;7.194;2023-05-10T07:35:37;14.30;79.10
1391;DHT22;690;51.454;7.194;2023-05-10T07:38:04;14.50;1.00
1391;DHT22;690;51.454;7.194;2023-05-10T07:40:31;14.70;99.90
1391;DHT22;690;51.454;7.194;2023-05-10T07:43:04;14.90;1.00
1391;DHT22;690;51.454;7.194;2023-05-10T07:45:33;14.90;99.90
1391;DHT22;690;51.454;7.194;2023-05-10T07:48:00;15.00;1.00
1391;DHT22;690;51.454;7.194;2023-05-10T07:50:27;15.10;99.90
1391;DHT22;690;51.454;7.194;2023-05-10T07:52:54;15.10;1.00
1391;DHT22;690;51.454;7.194;2023-05-10T07:55:21;15.00;1.00
1391;DHT22;690;51.454;7.194;2023-05-10T07:57:48;15.10;1.00
1391;DHT22;690;51.454;7.194;2023-05-10T08:00:17;15.30;1.00
1391;DHT22;690;51.454;7.194;2023-05-10T08:02:46;15.40;1.00
1391;DHT22;690;51.454;7.194;2023-05-10T08:05:13;15.50;1.00
1391;DHT22;690;51.454;7.194;2023-05-10T08:07:40;15.70;99.90
1391;DHT22;690;51.454;7.194;2023-05-10T08:10:08;15.80;99.90
1391;DHT22;690;51.454;7.194;2023-05-10T08:12:36;15.70;1.00
1391;DHT22;690;51.454;7.194;2023-05-10T08:15:04;15.70;35.40
1391;DHT22;690;51.454;7.194;2023-05-10T08:17:32;15.80;9.60
1391;DHT22;690;51.454;7.194;2023-05-10T08:20:00;15.70;1.00
1391;DHT22;690;51.454;7.194;2023-05-10T08:22:27;15.50;1.00
1391;DHT22;690;51.454;7.194;2023-05-10T08:24:54;15.30;1.00
1391;DHT22;690;51.454;7.194;2023-05-10T08:27:21;15.20;1.00
1391;DHT22;690;51.454;7.194;2023-05-10T08:29:48;15.20;1.00
1391;DHT22;690;51.454;7.194;2023-05-10T08:32:14;15.30;1.00
1391;DHT22;690;51.454;7.194;2023-05-10T08:34:41;15.30;1.00
1391;DHT22;690;51.454;7.194;2023-05-10T08:37:09;15.40;1.00
1391;DHT22;690;51.454;7.194;2023-05-10T08:39:38;15.50;1.00
1391;DHT22;690;51.454;7.194;2023-05-10T08:42:06;15.60;1.00
1391;DHT22;690;51.454;7.194;2023-05-10T08:44:35;15.70;1.00
1391;DHT22;690;51.454;7.194;2023-05-10T08:47:04;15.70;1.00
1391;DHT22;690;51.454;7.194;2023-05-10T08:49:32;15.60;1.00
1391;DHT22;690;51.454;7.194;2023-05-10T08:52:02;15.30;1.00
1391;DHT22;690;51.454;7.194;2023-05-10T08:54:31;15.20;1.00
1391;DHT22;690;51.454;7.194;2023-05-10T08:56:58;15.10;1.00
1391;DHT22;690;51.454;7.194;2023-05-10T08:59:26;15.00;1.00
1391;DHT22;690;51.454;7.194;2023-05-10T09:01:53;14.90;1.00
1391;DHT22;690;51.454;7.194;2023-05-10T09:04:23;15.00;1.00
1391;DHT22;690;51.454;7.194;2023-05-10T09:06:59;15.20;1.00
1391;DHT22;690;51.454;7.194;2023-05-10T09:09:27;15.50;1.00
1391;DHT22;690;51.454;7.194;2023-05-10T09:11:55;15.60;1.00
1391;DHT22;690;51.454;7.194;2023-05-10T09:14:23;15.70;1.00
1391;DHT22;690;51.454;7.194;2023-05-10T09:16:51;15.70;1.00
1391;DHT22;690;51.454;7.194;2023-05-10T09:19:19;15.70;1.00
1391;DHT22;690;51.454;7.194;2023-05-10T09:21:46;15.60;1.00
1391;DHT22;690;51.454;7.194;2023-05-10T09:24:13;15.50;1.00
1391;DHT22;690;51.454;7.194;2023-05-10T09:26:46;15.50;1.00
1391;DHT22;690;51.454;7.194;2023-05-10T09:29:15;15.60;1.00
1391;DHT22;690;51.454;7.194;2023-05-10T09:31:46;15.70;1.00
1391;DHT22;690;51.454;7.194;2023-05-10T09:34:17;15.80;1.00
1391;DHT22;690;51.454;7.194;2023-05-10T09:36:52;15.90;1.00
1391;DHT22;690;51.454;7.194;2023-05-10T09:39:20;16.00;1.00
1391;DHT22;690;51.454;7.194;2023-05-10T09:41:47;16.00;1.00
1391;DHT22;690;51.454;7.194;2023-05-10T09:44:18;16.00;1.00
1391;DHT22;690;51.454;7.194;2023-05-10T09:46:49;15.90;1.00
1391;DHT22;690;51.454;7.194;2023-05-10T09:49:18;16.00;1.00
1391;DHT22;690;51.454;7.194;2023-05-10T09:51:45;16.10;1.00
1391;DHT22;690;51.454;7.194;2023-05-10T09:54:13;16.20;1.00
1391;DHT22;690;51.454;7.194;2023-05-10T09:56:40;16.20;1.00
1391;DHT22;690;51.454;7.194;2023-05-10T09:59:09;16.30;1.00
1391;DHT22;690;51.454;7.194;2023-05-10T10:01:38;16.50;1.00
1391;DHT22;690;51.454;7.194;2023-05-10T10:04:06;16.90;1.00
1391;DHT22;690;51.454;7.194;2023-05-10T10:06:37;17.20;1.00
1391;DHT22;690;51.454;7.194;2023-05-10T10:09:04;17.60;1.00
1391;DHT22;690;51.454;7.194;2023-05-10T10:11:33;17.80;1.00
1391;DHT22;690;51.454;7.194;2023-05-10T10:14:00;18.10;1.00
1391;DHT22;690;51.454;7.194;2023-05-10T10:16:29;18.40;1.00
1391;DHT22;690;51.454;7.194;2023-05-10T10:18:57;18.60;1.00
1391;DHT22;690;51.454;7.194;2023-05-10T10:21:24;18.70;99.90
1391;DHT22;690;51.454;7.194;2023-05-10T10:23:51;18.60;99.90
1391;DHT22;690;51.454;7.194;2023-05-10T10:26:19;18.50;99.90
1391;DHT22;690;51.454;7.194;2023-05-10T10:28:51;18.30;99.90
1391;DHT22;690;51.454;7.194;2023-05-10T10:31:27;17.80;99.90
1391;DHT22;690;51.454;7.194;2023-05-10T10:34:05;17.20;99.90
1391;DHT22;690;51.454;7.194;2023-05-10T10:36:32;16.80;99.90
1391;DHT22;690;51.454;7.194;2023-05-10T10:39:09;16.80;99.90
1391;DHT22;690;51.454;7.194;2023-05-10T10:41:38;16.80;99.90
1391;DHT22;690;51.454;7.194;2023-05-10T10:44:36;16.90;99.90
1391;DHT22;690;51.454;7.194;2023-05-10T10:47:05;17.10;99.90
1391;DHT22;690;51.454;7.194;2023-05-10T10:49:43;17.50;99.90
1391;DHT22;690;51.454;7.194;2023-05-10T10:52:15;17.80;99.90
1391;DHT22;690;51.454;7.194;2023-05-10T10:54:49;18.20;99.90
1391;DHT22;690;51.454;7.194;2023-05-10T10:57:18;18.40;99.90
1391;DHT22;690;51.454;7.194;2023-05-10T10:59:45;18.40;99.90
1391;DHT22;690;51.454;7.194;2023-05-10T11:02:33;18.30;99.90
1391;DHT22;690;51.454;7.194;2023-05-10T11:08:11;17.90;99.90
1391;DHT22;690;51.454;7.194;2023-05-10T11:10:39;17.60;99.90
1391;DHT22;690;51.454;7.194;2023-05-10T11:13:12;17.50;99.90
1391;DHT22;690;51.454;7.194;2023-05-10T11:15:40;17.50;99.90
1391;DHT22;690;51.454;7.194;2023-05-10T11:18:19;17.70;99.90
1391;DHT22;690;51.454;7.194;2023-05-10T11:20:51;18.10;99.90
1391;DHT22;690;51.454;7.194;2023-05-10T11:23:18;18.30;99.90
1391;DHT22;690;51.454;7.194;2023-05-10T11:25:47;18.20;99.90
1391;DHT22;690;51.454;7.194;2023-05-10T11:28:17;17.90;99.90
1391;DHT22;690;51.454;7.194;2023-05-10T11:30:44;17.60;99.90
1391;DHT22;690;51.454;7.194;2023-05-10T11:33:15;17.60;99.90
1391;DHT22;690;51.454;7.194;2023-05-10T11:35:43;17.50;99.90
1391;DHT22;690;51.454;7.194;2023-05-10T11:38:12;17.40;99.90
1391;DHT22;690;51.454;7.194;2023-05-10T11:40:40;17.40;99.90
1391;DHT22;690;51.454;7.194;2023-05-10T11:43:09;17.60;99.90
1391;DHT22;690;51.454;7.194;2023-05-10T11:45:37;17.80;99.90
1391;DHT22;690;51.454;7.194;2023-05-10T11:48:04;17.90;99.90
1391;DHT22;690;51.454;7.194;2023-05-10T11:50:31;17.90;99.90
1391;DHT22;690;51.454;7.194;2023-05-10T11:52:59;17.90;99.90
1391;DHT22;690;51.454;7.194;2023-05-10T11:55:27;17.80;99.90
1391;DHT22;690;51.454;7.194;2023-05-10T11:58:00;17.80;99.90
1391;DHT22;690;51.454;7.194;2023-05-10T12:00:27;17.90;99.90
1391;DHT22;690;51.454;7.194;2023-05-10T12:02:54;18.00;99.90
1391;DHT22;690;51.454;7.194;2023-05-10T12:05:22;18.20;99.90
1391;DHT22;690;51.454;7.194;2023-05-10T12:08:13;18.20;99.90
1391;DHT22;690;51.454;7.194;2023-05-10T12:10:41;18.00;99.90
1391;DHT22;690;51.454;7.194;2023-05-10T12:13:11;17.90;99.90
1391;DHT22;690;51.454;7.194;2023-05-10T12:15:39;17.70;99.90
1391;DHT22;690;51.454;7.194;2023-05-10T12:18:08;17.50;99.90
1391;DHT22;690;51.454;7.194;2023-05-10T12:20:38;17.30;99.90
1391;DHT22;690;51.454;7.194;2023-05-10T12:23:07;17.10;99.90
1391;DHT22;690;51.454;7.194;2023-05-10T12:25:36;17.30;99.90
1391;DHT22;690;51.454;7.194;2023-05-10T12:28:05;17.50;99.90
1391;DHT22;690;51.454;7.194;2023-05-10T12:30:34;17.60;99.90
1391;DHT22;690;51.454;7.194;2023-05-10T12:33:01;17.70;99.90
1391;DHT22;690;51.454;7.194;2023-05-10T12:35:32;17.80;99.90
1391;DHT22;690;51.454;7.194;2023-05-10T12:37:59;17.80;99.90
1391;DHT22;690;51.454;7.194;2023-05-10T12:40:34;17.60;99.90
1391;DHT22;690;51.454;7.194;2023-05-10T12:43:03;17.50;99.90
1391;DHT22;690;51.454;7.194;2023-05-10T12:45:35;17.40;99.90
1391;DHT22;690;51.454;7.194;2023-05-10T12:48:07;17.30;99.90
1391;DHT22;690;51.454;7.194;2023-05-10T12:50:34;17.30;99.90
1391;DHT22;690;51.454;7.194;2023-05-10T12:53:01;17.40;99.90
1391;DHT22;690;51.454;7.194;2023-05-10T12:55:29;17.40;99.90
1391;DHT22;690;51.454;7.194;2023-05-10T12:58:07;17.40;99.90
1391;DHT22;690;51.454;7.194;2023-05-10T13:00:36;17.30;99.90
1391;DHT22;690;51.454;7.194;2023-05-10T13:03:04;17.20;99.90
1391;DHT22;690;51.454;7.194;2023-05-10T13:05:32;17.30;99.90
1391;DHT22;690;51.454;7.194;2023-05-10T13:08:11;17.50;99.90
1391;DHT22;690;51.454;7.194;2023-05-10T13:10:46;17.80;99.90
1391;DHT22;690;51.454;7.194;2023-05-10T13:13:25;18.00;99.90
1391;DHT22;690;51.454;7.194;2023-05-10T13:15:52;18.10;99.90
1391;DHT22;690;51.454;7.194;2023-05-10T13:18:22;18.30;99.90
1391;DHT22;690;51.454;7.194;2023-05-10T13:20:59;18.50;99.90
1391;DHT22;690;51.454;7.194;2023-05-10T13:23:37;18.30;99.90
1391;DHT22;690;51.454;7.194;2023-05-10T13:26:14;18.20;99.90
1391;DHT22;690;51.454;7.194;2023-05-10T13:28:43;18.00;99.90
1391;DHT22;690;51.454;7.194;2023-05-10T13:31:11;18.00;99.90
1391;DHT22;690;51.454;7.194;2023-05-10T13:33:38;18.10;99.90
1391;DHT22;690;51.454;7.194;2023-05-10T13:36:05;18.20;99.90
1391;DHT22;690;51.454;7.194;2023-05-10T13:38:33;18.50;99.90
1391;DHT22;690;51.454;7.194;2023-05-10T13:40:59;18.70;99.90
1391;DHT22;690;51.454;7.194;2023-05-10T13:43:29;19.10;99.90
1391;DHT22;690;51.454;7.194;2023-05-10T13:45:57;19.30;99.90
1391;DHT22;690;51.454;7.194;2023-05-10T13:48:24;19.40;99.90
1391;DHT22;690;51.454;7.194;2023-05-10T13:50:51;19.50;99.90
1391;DHT22;690;51.454;7.194;2023-05-10T13:53:18;19.50;99.90
1391;DHT22;690;51.454;7.194;2023-05-10T13:55:45;19.60;99.90
1391;DHT22;690;51.454;7.194;2023-05-10T13:58:15;19.70;99.90
1391;DHT22;690;51.454;7.194;2023-05-10T14:00:42;19.60;99.90
1391;DHT22;690;51.454;7.194;2023-05-10T14:03:10;19.70;99.90
1391;DHT22;690;51.454;7.194;2023-05-10T14:05:37;19.90;99.90
1391;DHT22;690;51.454;7.194;2023-05-10T14:08:04;19.90;99.90
1391;DHT22;690;51.454;7.194;2023-05-10T14:10:31;19.90;99.90
1391;DHT22;690;51.454;7.194;2023-05-10T14:12:58;19.70;99.90
1391;DHT22;690;51.454;7.194;2023-05-10T14:15:25;19.50;99.90
1391;DHT22;690;51.454;7.194;2023-05-10T14:17:51;19.50;99.90
1391;DHT22;690;51.454;7.194;2023-05-10T14:20:20;19.60;99.90
1391;DHT22;690;51.454;7.194;2023-05-10T14:22:47;19.50;99.90
1391;DHT22;690;51.454;7.194;2023-05-10T14:25:14;19.10;99.90
1391;DHT22;690;51.454;7.194;2023-05-10T14:27:41;18.80;99.90
1391;DHT22;690;51.454;7.194;2023-05-10T14:30:08;18.60;99.90
1391;DHT22;690;51.454;7.194;2023-05-10T14:32:35;18.60;99.90
1391;DHT22;690;51.454;7.194;2023-05-10T14:35:03;18.80;99.90
1391;DHT22;690;51.454;7.194;2023-05-10T14:37:32;18.80;99.90
1391;DHT22;690;51.454;7.194;2023-05-10T14:39:59;19.10;99.90
1391;DHT22;690;51.454;7.194;2023-05-10T14:42:26;19.20;99.90
1391;DHT22;690;51.454;7.194;2023-05-10T14:44:53;19.40;99.90
1391;DHT22;690;51.454;7.194;2023-05-10T14:47:20;19.60;99.90
1391;DHT22;690;51.454;7.194;2023-05-10T14:49:47;19.80;99.90
1391;DHT22;690;51.454;7.194;2023-05-10T14:52:14;20.00;99.90
1391;DHT22;690;51.454;7.194;2023-05-10T14:54:43;19.90;99.90
1391;DHT22;690;51.454;7.194;2023-05-10T14:57:10;19.80;99.90
1391;DHT22;690;51.454;7.194;2023-05-10T14:59:37;19.60;99.90
1391;DHT22;690;51.454;7.194;2023-05-10T15:02:04;19.60;99.90
1391;DHT22;690;51.454;7.194;2023-05-10T15:04:31;19.60;99.90
1391;DHT22;690;51.454;7.194;2023-05-10T15:06:58;19.90;99.90
1391;DHT22;690;51.454;7.194;2023-05-10T15:09:25;20.10;99.90
1391;DHT22;690;51.454;7.194;2023-05-10T15:11:54;20.30;99.90
1391;DHT22;690;51.454;7.194;2023-05-10T15:14:21;20.30;99.90
1391;DHT22;690;51.454;7.194;2023-05-10T15:16:48;20.30;99.90
1391;DHT22;690;51.454;7.194;2023-05-10T15:19:15;20.60;99.90
1391;DHT22;690;51.454;7.194;2023-05-10T15:21:42;20.80;99.90
1391;DHT22;690;51.454;7.194;2023-05-10T15:24:10;21.20;99.90
1391;DHT22;690;51.454;7.194;2023-05-10T15:26:37;21.30;99.90
1391;DHT22;690;51.454;7.194;2023-05-10T15:29:05;21.30;99.90
1391;DHT22;690;51.454;7.194;2023-05-10T15:31:32;21.00;99.90
1391;DHT22;690;51.454;7.194;2023-05-10T15:34:00;20.80;99.90
1391;DHT22;690;51.454;7.194;2023-05-10T15:36:27;21.20;99.90
1391;DHT22;690;51.454;7.194;2023-05-10T15:38:54;21.70;99.90
1391;DHT22;690;51.454;7.194;2023-05-10T15:41:22;21.90;99.90
1391;DHT22;690;51.454;7.194;2023-05-10T15:43:50;22.30;99.90
1391;DHT22;690;51.454;7.194;2023-05-10T15:46:18;22.40;99.90
1391;DHT22;690;51.454;7.194;2023-05-10T15:48:46;22.40;99.90
1391;DHT22;690;51.454;7.194;2023-05-10T15:51:13;23.40;99.90
1391;DHT22;690;51.454;7.194;2023-05-10T15:53:40;24.50;99.90
1391;DHT22;690;51.454;7.194;2023-05-10T15:56:07;24.20;99.90
1391;DHT22;690;51.454;7.194;2023-05-10T15:58:34;23.70;99.90
1391;DHT22;690;51.454;7.194;2023-05-10T16:01:01;23.60;99.90
1391;DHT22;690;51.454;7.194;2023-05-10T16:03:30;23.30;99.90
1391;DHT22;690;51.454;7.194;2023-05-10T16:05:57;23.40;99.90
1391;DHT22;690;51.454;7.194;2023-05-10T16:08:23;23.70;99.90
1391;DHT22;690;51.454;7.194;2023-05-10T16:10:51;24.00;99.90
1391;DHT22;690;51.454;7.194;2023-05-10T16:13:18;23.40;99.90
1391;DHT22;690;51.454;7.194;2023-05-10T16:15:45;22.60;99.90
1391;DHT22;690;51.454;7.194;2023-05-10T16:18:12;21.80;99.90
1391;DHT22;690;51.454;7.194;2023-05-10T16:20:40;21.10;99.90
1391;DHT22;690;51.454;7.194;2023-05-10T16:23:07;20.40;99.90
1391;DHT22;690;51.454;7.194;2023-05-10T16:25:34;19.80;99.90
1391;DHT22;690;51.454;7.194;2023-05-10T16:28:01;19.30;99.90
1391;DHT22;690;51.454;7.194;2023-05-10T16:30:28;19.00;99.90
1391;DHT22;690;51.454;7.194;2023-05-10T16:32:55;18.80;99.90
1391;DHT22;690;51.454;7.194;2023-05-10T16:35:22;18.60;99.90
1391;DHT22;690;51.454;7.194;2023-05-10T16:37:52;18.40;99.90
1391;DHT22;690;51.454;7.194;2023-05-10T16:40:19;18.20;99.90